Time;durP1;ratioP1;P1;durP2;ratioP2;P2;SDS_P1;SDS_P2;PMS_P1;PMS_P2;Temp;Humidity;BMP_temperature;BMP_pressure;BME280_temperature;BME280_humidity;BME280_pressure;Samples;Min_cycle;Max_cycle;Signal;HPM_P1;HPM_P2
2021/09/15 15:27:35;;;;;;;6.82;5.88;;;22.50;98.30;;;;;;6263298;22;1192619;-79
2021/09/15 15:30:01;;;;;;;6.50;5.30;;;22.60;98.40;;;;;;6331366;22;20083;-81
2021/09/15 15:32:27;;;;;;;6.55;5.28;;;22.60;98.30;;;;;;6334569;22;20476;-79
2021/09/15 15:34:53;;;;;;;8.18;5.60;;;22.60;98.30;;;;;;6334033;22;20351;-80
2021/09/15 15:37:19;;;;;;;7.50;6.22;;;22.50;98.40;;;;;;6335330;22;20127;-80
2021/09/15 15:39:45;;;;;;;6.78;5.78;;;22.50;98.50;;;;;;6334206;22;20007;-82
2021/09/15 15:42:10;;;;;;;7.43;5.72;;;22.50;98.50;;;;;;6334960;22;20011;-81
2021/09/15 15:44:36;;;;;;;9.52;6.05;;;22.60;98.70;;;;;;6334012;22;20002;-82
2021/09/15 15:47:02;;;;;;;8.32;5.70;;;22.60;98.70;;;;;;6306022;22;20469;-80
2021/09/15 15:49:27;;;;;;;5.63;4.95;;;22.70;98.60;;;;;;6306548;22;20006;-80
2021/09/15 15:51:53;;;;;;;6.97;5.47;;;22.70;98.40;;;;;;6334463;22;20058;-80
2021/09/15 15:54:18;;;;;;;5.72;4.88;;;22.70;98.20;;;;;;6334356;22;20127;-80
2021/09/15 15:56:43;;;;;;;8.15;5.95;;;22.70;98.20;;;;;;6335467;22;19995;-80
2021/09/15 15:59:10;;;;;;;5.40;4.90;;;22.70;98.30;;;;;;6305765;22;20003;-82
2021/09/15 16:01:35;;;;;;;7.68;5.63;;;22.80;98.30;;;;;;6334259;22;20007;-82
2021/09/15 16:04:05;;;;;;;8.68;5.05;;;22.80;98.20;;;;;;6333332;22;20090;-84
2021/09/15 16:06:32;;;;;;;6.10;5.32;;;22.80;98.30;;;;;;6333869;22;20488;-81
2021/09/15 16:08:57;;;;;;;6.57;5.07;;;22.80;98.50;;;;;;6333560;22;20003;-79
2021/09/15 16:11:23;;;;;;;6.10;5.38;;;22.80;98.20;;;;;;6304961;22;20034;-81
2021/09/15 16:13:48;;;;;;;7.32;4.78;;;22.80;98.30;;;;;;6333936;22;19991;-81
2021/09/15 16:16:14;;;;;;;6.20;4.90;;;22.70;98.10;;;;;;6332623;22;19995;-81
2021/09/15 16:18:39;;;;;;;5.65;4.55;;;22.80;98.20;;;;;;6332772;22;20060;-81
2021/09/15 16:21:05;;;;;;;5.65;4.82;;;22.70;98.10;;;;;;6333174;22;20041;-80
2021/09/15 16:23:32;;;;;;;7.32;5.07;;;22.70;98.10;;;;;;6333239;22;19999;-80
2021/09/15 16:25:58;;;;;;;5.65;4.53;;;22.70;98.20;;;;;;6333003;22;20052;-82
2021/09/15 16:28:23;;;;;;;6.43;5.05;;;22.70;98.30;;;;;;6332011;22;20362;-80
2021/09/15 16:30:49;;;;;;;6.10;4.82;;;22.70;98.30;;;;;;6332245;22;20052;-80
2021/09/15 16:33:14;;;;;;;5.30;4.80;;;22.70;98.30;;;;;;6333314;22;20078;-81
2021/09/15 16:35:40;;;;;;;6.82;4.80;;;22.70;98.40;;;;;;6333233;22;20002;-81
2021/09/15 16:38:05;;;;;;;5.70;4.30;;;22.60;98.40;;;;;;6332212;22;20003;-81
2021/09/15 16:40:30;;;;;;;6.18;5.35;;;22.70;98.50;;;;;;6331347;22;20070;-80
2021/09/15 16:42:56;;;;;;;7.85;5.25;;;22.60;98.50;;;;;;6305010;22;19998;-81
2021/09/15 16:45:21;;;;;;;6.97;5.20;;;22.60;98.50;;;;;;6332241;22;20010;-81
2021/09/15 16:47:47;;;;;;;6.57;5.25;;;22.60;98.60;;;;;;6330686;22;20425;-81
2021/09/15 16:50:15;;;;;;;7.80;5.20;;;22.60;98.60;;;;;;6331439;22;19999;-81
2021/09/15 16:52:40;;;;;;;6.35;5.70;;;22.60;98.70;;;;;;6332808;22;20496;-80
2021/09/15 16:55:06;;;;;;;7.30;5.93;;;22.60;98.70;;;;;;6333331;22;20010;-81
2021/09/15 16:57:31;;;;;;;8.65;6.25;;;22.50;98.80;;;;;;6332049;22;20341;-79
2021/09/15 16:59:57;;;;;;;7.30;5.70;;;22.50;99.00;;;;;;6332131;22;19999;-80
2021/09/15 17:02:22;;;;;;;9.23;5.95;;;22.50;99.30;;;;;;6332041;22;20014;-79
2021/09/15 17:04:47;;;;;;;9.18;5.82;;;22.40;99.40;;;;;;6331954;22;20003;-79
2021/09/15 17:07:13;;;;;;;8.18;4.90;;;22.30;99.60;;;;;;6305464;22;20025;-82
2021/09/15 17:09:38;;;;;;;5.25;4.65;;;22.20;99.80;;;;;;6331271;22;20328;-79
2021/09/15 17:12:04;;;;;;;6.47;5.53;;;22.20;99.90;;;;;;6331469;22;20003;-82
2021/09/15 17:14:30;;;;;;;9.90;5.53;;;22.10;99.90;;;;;;6330550;22;20007;-81
2021/09/15 17:16:56;;;;;;;7.00;6.18;;;22.10;99.90;;;;;;6331224;22;20036;-80
2021/09/15 17:19:21;;;;;;;8.18;5.72;;;22.00;99.90;;;;;;6331006;22;20332;-82
2021/09/15 17:21:47;;;;;;;6.88;5.45;;;22.00;99.90;;;;;;6332061;22;20007;-81
2021/09/15 17:24:12;;;;;;;8.00;5.07;;;21.90;99.90;;;;;;6328728;22;20033;-80
2021/09/15 17:26:38;;;;;;;6.72;5.57;;;21.80;99.90;;;;;;6332567;22;20086;-81
2021/09/15 17:29:03;;;;;;;7.80;6.10;;;21.80;99.90;;;;;;6331102;22;19995;-80
2021/09/15 17:31:29;;;;;;;7.60;6.63;;;21.70;99.90;;;;;;6331518;22;20388;-81
2021/09/15 17:33:54;;;;;;;7.38;6.05;;;21.70;99.90;;;;;;6304897;22;20003;-80
2021/09/15 17:36:20;;;;;;;7.15;5.60;;;21.60;99.90;;;;;;6331150;22;20022;-81
2021/09/15 17:38:45;;;;;;;6.63;5.93;;;21.60;99.90;;;;;;6304644;22;20297;-81
2021/09/15 17:41:11;;;;;;;7.85;6.47;;;21.60;99.90;;;;;;6332964;22;20437;-79
2021/09/15 17:43:36;;;;;;;9.50;6.03;;;21.60;99.90;;;;;;6330776;22;20010;-81
2021/09/15 17:46:02;;;;;;;10.70;6.70;;;21.50;99.90;;;;;;6304782;22;20002;-80
2021/09/15 17:48:27;;;;;;;7.55;6.07;;;21.50;99.90;;;;;;6333097;22;20074;-81
2021/09/15 17:50:53;;;;;;;8.10;6.75;;;21.50;99.90;;;;;;6331092;22;20030;-79
2021/09/15 17:53:18;;;;;;;7.38;5.90;;;21.50;99.90;;;;;;6329503;22;20002;-80
2021/09/15 17:55:44;;;;;;;8.27;6.32;;;21.40;99.90;;;;;;6328819;22;20753;-80
2021/09/15 17:58:11;;;;;;;6.90;6.20;;;21.40;99.90;;;;;;6328070;22;20053;-80
2021/09/15 18:00:38;;;;;;;10.25;6.68;;;21.40;99.90;;;;;;6328313;22;20002;-81
2021/09/15 18:03:03;;;;;;;8.18;6.63;;;21.30;99.90;;;;;;6328956;22;20009;-80
2021/09/15 18:05:29;;;;;;;8.40;6.53;;;21.30;99.90;;;;;;6329102;22;20002;-80
2021/09/15 18:07:55;;;;;;;8.15;6.28;;;21.30;99.90;;;;;;6328189;22;20002;-81
2021/09/15 18:10:20;;;;;;;10.65;6.95;;;21.30;99.90;;;;;;6330569;22;20009;-80
2021/09/15 18:12:47;;;;;;;8.35;6.85;;;21.20;99.90;;;;;;6329852;22;20474;-81
2021/09/15 18:15:13;;;;;;;9.73;7.30;;;21.20;99.90;;;;;;6302679;22;20033;-81
2021/09/15 18:17:39;;;;;;;11.10;7.25;;;21.20;99.90;;;;;;6326828;22;19994;-81
2021/09/15 18:20:07;;;;;;;10.07;7.28;;;21.10;99.90;;;;;;6330438;22;20003;-80
2021/09/15 18:22:33;;;;;;;8.23;6.75;;;21.10;99.90;;;;;;6328480;22;20010;-80
2021/09/15 18:24:58;;;;;;;10.13;7.63;;;21.10;99.90;;;;;;6328488;22;20003;-80
2021/09/15 18:27:24;;;;;;;9.95;6.28;;;21.10;99.90;;;;;;6302280;22;20010;-80
2021/09/15 18:29:49;;;;;;;8.68;6.95;;;21.10;99.90;;;;;;6328791;22;20003;-79
2021/09/15 18:32:14;;;;;;;12.00;6.97;;;21.10;99.90;;;;;;6329709;22;20006;-79
2021/09/15 18:34:40;;;;;;;7.30;6.43;;;21.10;99.90;;;;;;6330413;22;20014;-78
2021/09/15 18:37:06;;;;;;;11.90;6.95;;;21.00;99.90;;;;;;6302365;22;20003;-79
2021/09/15 18:39:31;;;;;;;8.10;5.85;;;21.00;99.90;;;;;;6327792;22;20015;-80
2021/09/15 18:41:57;;;;;;;9.27;5.70;;;21.00;99.90;;;;;;6328394;22;20056;-79
2021/09/15 18:44:23;;;;;;;8.80;6.03;;;20.90;99.90;;;;;;6331116;22;20097;-82
2021/09/15 18:46:50;;;;;;;8.80;6.13;;;20.90;99.90;;;;;;6303364;22;19999;-79
2021/09/15 18:49:15;;;;;;;7.22;5.88;;;20.90;99.90;;;;;;6332468;22;20003;-79
2021/09/15 18:51:41;;;;;;;5.78;5.18;;;20.90;99.90;;;;;;6332552;22;20059;-79
2021/09/15 18:54:08;;;;;;;12.63;6.05;;;20.90;99.90;;;;;;6303184;22;20052;-79
2021/09/15 18:56:35;;;;;;;7.65;6.00;;;20.80;99.90;;;;;;6329719;22;20003;-80
2021/09/15 18:59:01;;;;;;;6.95;4.65;;;20.80;99.90;;;;;;6329632;22;20002;-80
2021/09/15 19:01:26;;;;;;;9.88;5.97;;;20.80;99.90;;;;;;6330105;22;20598;-79
2021/09/15 19:03:52;;;;;;;8.77;5.72;;;20.80;99.90;;;;;;6330298;22;20017;-78
2021/09/15 19:06:18;;;;;;;7.97;5.72;;;20.80;99.90;;;;;;6330616;22;20056;-80
2021/09/15 19:08:44;;;;;;;6.85;5.82;;;20.80;99.90;;;;;;6332623;22;19995;-79
2021/09/15 19:11:09;;;;;;;13.55;6.15;;;20.70;99.90;;;;;;6331235;22;20040;-80
2021/09/15 19:13:36;;;;;;;9.98;5.78;;;20.70;99.90;;;;;;6331231;22;19998;-80
2021/09/15 19:16:02;;;;;;;10.40;5.75;;;20.70;99.90;;;;;;6304879;22;20132;-78
2021/09/15 19:18:28;;;;;;;8.77;5.80;;;20.70;99.90;;;;;;6333542;22;19995;-80
2021/09/15 19:20:54;;;;;;;9.63;6.07;;;20.70;99.90;;;;;;6333634;22;20020;-80
2021/09/15 19:23:19;;;;;;;8.63;5.50;;;20.70;99.90;;;;;;6332992;22;20343;-79
2021/09/15 19:25:47;;;;;;;9.20;5.82;;;20.70;99.90;;;;;;6332950;22;20048;-80
2021/09/15 19:28:14;;;;;;;12.35;6.18;;;20.70;99.90;;;;;;6331725;22;20033;-79
2021/09/15 19:30:40;;;;;;;8.02;6.03;;;20.70;99.90;;;;;;6333920;22;20013;-80
2021/09/15 19:33:06;;;;;;;7.78;5.57;;;20.70;99.90;;;;;;6333371;22;20070;-81
2021/09/15 19:35:31;;;;;;;6.53;5.03;;;20.70;99.90;;;;;;6333380;22;20038;-80
2021/09/15 19:37:57;;;;;;;7.65;5.40;;;20.70;99.90;;;;;;6305791;22;20006;-81
2021/09/15 19:40:22;;;;;;;5.70;4.82;;;20.70;99.90;;;;;;6306851;22;20085;-83
2021/09/15 19:42:48;;;;;;;6.18;4.90;;;20.70;99.90;;;;;;6306870;22;20332;-82
2021/09/15 19:45:13;;;;;;;5.78;5.00;;;20.70;99.90;;;;;;6334887;22;20074;-80
2021/09/15 19:47:40;;;;;;;6.20;4.25;;;20.70;99.90;;;;;;6334821;22;19994;-80
2021/09/15 19:50:07;;;;;;;7.32;4.85;;;20.70;99.90;;;;;;6334472;22;20003;-81
2021/09/15 19:52:32;;;;;;;8.20;5.47;;;20.70;99.90;;;;;;6305755;22;20374;-79
2021/09/15 19:54:58;;;;;;;6.93;5.15;;;20.70;99.90;;;;;;6335756;22;20077;-80
2021/09/15 19:57:24;;;;;;;5.18;4.68;;;20.70;99.90;;;;;;6335774;22;20055;-80
2021/09/15 19:59:49;;;;;;;6.88;4.43;;;20.70;99.90;;;;;;6333236;22;20545;-82
2021/09/15 20:02:15;;;;;;;6.60;4.60;;;20.70;99.90;;;;;;6334028;22;20010;-81
2021/09/15 20:04:40;;;;;;;5.50;4.78;;;20.70;99.90;;;;;;6333956;22;20081;-81
2021/09/15 20:07:06;;;;;;;6.07;4.95;;;20.70;99.90;;;;;;6331487;22;20009;-80
2021/09/15 20:09:32;;;;;;;8.23;4.78;;;20.70;99.90;;;;;;6333072;22;19999;-79
2021/09/15 20:11:57;;;;;;;9.38;4.97;;;20.70;99.90;;;;;;6333225;22;20009;-79
2021/09/15 20:14:23;;;;;;;6.15;4.57;;;20.70;99.90;;;;;;6334599;22;20030;-78
2021/09/15 20:16:50;;;;;;;8.25;4.68;;;20.70;99.90;;;;;;6333407;22;20325;-81
2021/09/15 20:19:16;;;;;;;5.13;4.15;;;20.70;99.90;;;;;;6333542;22;20003;-79
2021/09/15 20:21:42;;;;;;;5.70;4.30;;;20.70;99.90;;;;;;6334075;22;20021;-80
2021/09/15 20:24:07;;;;;;;5.30;4.03;;;20.70;99.90;;;;;;6335039;22;20021;-79
2021/09/15 20:26:33;;;;;;;5.30;4.35;;;20.70;99.90;;;;;;6333291;22;20011;-80
2021/09/15 20:28:59;;;;;;;5.75;4.45;;;20.70;99.90;;;;;;6333418;22;20037;-79
2021/09/15 20:31:24;;;;;;;6.97;4.32;;;20.70;99.90;;;;;;6334427;22;20333;-79
2021/09/15 20:33:50;;;;;;;6.45;3.97;;;20.70;99.90;;;;;;6335019;22;20003;-80
2021/09/15 20:36:16;;;;;;;6.03;3.90;;;20.70;99.90;;;;;;6334058;22;19998;-81
2021/09/15 20:38:42;;;;;;;5.82;3.97;;;20.70;99.90;;;;;;6333933;22;20009;-80
2021/09/15 20:41:08;;;;;;;5.45;4.47;;;20.70;99.90;;;;;;6333855;22;20007;-80
2021/09/15 20:43:34;;;;;;;5.05;3.92;;;20.70;99.90;;;;;;6333765;22;20484;-79
2021/09/15 20:45:59;;;;;;;4.32;3.17;;;20.70;99.90;;;;;;6333712;22;20027;-81
2021/09/15 20:48:25;;;;;;;3.72;3.22;;;20.70;99.90;;;;;;6305878;22;20423;-81
2021/09/15 20:50:50;;;;;;;5.07;3.75;;;20.80;99.90;;;;;;6333784;22;20003;-80
2021/09/15 20:53:15;;;;;;;5.70;3.25;;;20.70;99.90;;;;;;6333740;22;20621;-82
2021/09/15 20:55:41;;;;;;;3.90;3.50;;;20.70;99.90;;;;;;6334464;22;20014;-80
2021/09/15 20:58:07;;;;;;;6.35;3.50;;;20.70;99.90;;;;;;6333456;22;20007;-80
2021/09/15 21:00:32;;;;;;;5.03;3.67;;;20.70;99.90;;;;;;6332646;22;20034;-80
2021/09/15 21:02:58;;;;;;;5.85;3.53;;;20.60;99.90;;;;;;6333956;22;20006;-80
2021/09/15 21:05:24;;;;;;;4.50;3.40;;;20.70;99.90;;;;;;6334015;22;20075;-79
2021/09/15 21:07:49;;;;;;;3.80;3.40;;;20.70;99.90;;;;;;6332509;22;19998;-80
2021/09/15 21:10:15;;;;;;;4.63;3.35;;;20.60;99.90;;;;;;6306591;22;20461;-81
2021/09/15 21:12:40;;;;;;;5.70;3.80;;;20.60;99.90;;;;;;6305479;22;20454;-81
2021/09/15 21:15:06;;;;;;;4.40;2.95;;;20.60;99.90;;;;;;6334354;22;20588;-80
2021/09/15 21:17:32;;;;;;;6.93;3.40;;;20.70;99.90;;;;;;6333184;22;20528;-79
2021/09/15 21:19:58;;;;;;;9.30;3.53;;;20.60;99.90;;;;;;6332964;22;20516;-79
2021/09/15 21:22:24;;;;;;;3.90;3.47;;;20.60;99.90;;;;;;6333793;22;20012;-79
2021/09/15 21:24:50;;;;;;;4.63;3.28;;;20.60;99.90;;;;;;6334364;22;20006;-80
2021/09/15 21:27:15;;;;;;;5.78;3.00;;;20.60;99.90;;;;;;6332217;22;20011;-80
2021/09/15 21:29:41;;;;;;;5.03;3.50;;;20.50;99.90;;;;;;6333494;22;20439;-81
2021/09/15 21:32:07;;;;;;;5.38;3.65;;;20.60;99.90;;;;;;6333428;22;20451;-80
2021/09/15 21:34:32;;;;;;;4.30;3.03;;;20.60;99.90;;;;;;6306035;22;19999;-81
2021/09/15 21:36:58;;;;;;;5.57;3.50;;;20.60;99.90;;;;;;6333834;22;20003;-79
2021/09/15 21:39:23;;;;;;;5.00;3.50;;;20.60;99.90;;;;;;6304023;22;20014;-80
2021/09/15 21:41:49;;;;;;;10.00;4.00;;;20.60;99.90;;;;;;6333397;22;20405;-80
2021/09/15 21:44:14;;;;;;;5.30;3.50;;;20.60;99.90;;;;;;6334270;22;20421;-79
2021/09/15 21:46:40;;;;;;;3.90;3.50;;;20.60;99.90;;;;;;6306007;22;20007;-79
2021/09/15 21:49:05;;;;;;;8.43;4.00;;;20.70;99.90;;;;;;6334223;22;20455;-79
2021/09/15 21:51:31;;;;;;;5.47;4.07;;;20.60;99.90;;;;;;6306841;22;20115;-80
2021/09/15 21:53:57;;;;;;;5.22;3.90;;;20.60;99.90;;;;;;6334674;22;20083;-82
2021/09/15 21:56:22;;;;;;;5.95;3.90;;;20.60;99.90;;;;;;6334449;22;20002;-80
2021/09/15 21:58:48;;;;;;;4.60;4.05;;;20.60;99.90;;;;;;6333647;22;20008;-79
2021/09/15 22:01:14;;;;;;;4.57;3.45;;;20.60;99.90;;;;;;6333022;22;20002;-81
2021/09/15 22:03:40;;;;;;;7.95;4.10;;;20.70;99.90;;;;;;6334759;22;20003;-81
2021/09/15 22:06:07;;;;;;;5.68;4.03;;;20.60;99.90;;;;;;6334141;22;20073;-82
2021/09/15 22:08:34;;;;;;;5.13;3.85;;;20.60;99.90;;;;;;6336169;22;20002;-79
2021/09/15 22:11:00;;;;;;;5.82;4.05;;;20.60;99.90;;;;;;6336319;22;20435;-79
2021/09/15 22:13:26;;;;;;;5.43;3.95;;;20.60;99.90;;;;;;6333677;22;20003;-80
2021/09/15 22:15:51;;;;;;;6.57;4.35;;;20.70;99.90;;;;;;6333578;22;20013;-80
2021/09/15 22:18:17;;;;;;;7.78;4.57;;;20.60;99.90;;;;;;6334574;22;20007;-81
2021/09/15 22:20:43;;;;;;;4.80;3.70;;;20.70;99.90;;;;;;6335397;22;20003;-81
2021/09/15 22:23:09;;;;;;;5.93;4.72;;;20.70;99.90;;;;;;6335063;22;20010;-81
2021/09/15 22:25:35;;;;;;;5.85;4.80;;;20.70;99.90;;;;;;6334315;22;20013;-79
2021/09/15 22:28:01;;;;;;;5.50;4.35;;;20.70;99.90;;;;;;6333506;22;20009;-79
2021/09/15 22:30:27;;;;;;;4.95;4.18;;;20.70;99.90;;;;;;6333328;22;20093;-80
2021/09/15 22:32:53;;;;;;;7.45;4.13;;;20.70;99.90;;;;;;6304958;22;20015;-83
2021/09/15 22:35:21;;;;;;;6.10;4.43;;;20.70;99.90;;;;;;6333748;22;19999;-80
2021/09/15 22:37:47;;;;;;;7.63;5.18;;;20.70;99.90;;;;;;6304601;22;20445;-79
2021/09/15 22:40:15;;;;;;;5.93;5.30;;;20.70;99.90;;;;;;6308112;22;20018;-78
2021/09/15 22:42:41;;;;;;;5.70;4.22;;;20.70;99.90;;;;;;6308556;22;20009;-80
2021/09/15 22:45:07;;;;;;;8.18;5.22;;;20.70;99.90;;;;;;6336363;22;20069;-79
2021/09/15 22:47:33;;;;;;;7.65;5.00;;;20.70;99.90;;;;;;6336484;22;20035;-79
2021/09/15 22:49:59;;;;;;;6.78;4.72;;;20.70;99.90;;;;;;6336367;22;20002;-79
2021/09/15 22:52:25;;;;;;;7.70;4.93;;;20.70;99.90;;;;;;6336432;22;20420;-81
2021/09/15 22:54:50;;;;;;;6.53;5.07;;;20.70;99.90;;;;;;6336975;22;20003;-79
2021/09/15 22:57:16;;;;;;;4.60;4.10;;;20.70;99.90;;;;;;6335720;22;20615;-81
2021/09/15 22:59:41;;;;;;;10.70;5.45;;;20.70;99.90;;;;;;6335328;22;19995;-79
2021/09/15 23:02:07;;;;;;;6.32;4.72;;;20.70;99.90;;;;;;6337653;22;20294;-81
2021/09/15 23:04:32;;;;;;;4.90;4.32;;;20.60;99.90;;;;;;6308843;22;20007;-80
2021/09/15 23:06:58;;;;;;;6.30;4.90;;;20.60;99.90;;;;;;6336943;22;20496;-80
2021/09/15 23:09:23;;;;;;;4.55;4.10;;;20.60;99.90;;;;;;6334394;22;20066;-80
2021/09/15 23:11:49;;;;;;;7.95;4.75;;;20.50;99.90;;;;;;6334963;22;19999;-80
2021/09/15 23:14:14;;;;;;;6.97;4.45;;;20.50;99.90;;;;;;6335758;22;20107;-81
2021/09/15 23:16:40;;;;;;;4.82;4.32;;;20.50;99.90;;;;;;6335648;22;20006;-80
2021/09/15 23:19:05;;;;;;;5.82;4.80;;;20.50;99.90;;;;;;6333560;22;20379;-82
2021/09/15 23:21:31;;;;;;;9.80;4.90;;;20.50;99.90;;;;;;6334556;22;20009;-82
2021/09/15 23:23:57;;;;;;;9.00;4.18;;;20.50;99.90;;;;;;6306635;22;20026;-82
2021/09/15 23:26:23;;;;;;;4.93;4.00;;;20.50;99.90;;;;;;6334229;22;20011;-80
2021/09/15 23:28:48;;;;;;;5.63;4.13;;;20.50;99.90;;;;;;6333513;22;19995;-81
2021/09/15 23:31:14;;;;;;;9.73;5.13;;;20.50;99.90;;;;;;6334142;22;20417;-80
2021/09/15 23:33:39;;;;;;;7.93;4.75;;;20.50;99.90;;;;;;6334382;22;20006;-81
2021/09/15 23:36:05;;;;;;;5.97;4.97;;;20.50;99.90;;;;;;6335211;22;19998;-81
2021/09/15 23:38:31;;;;;;;5.00;4.45;;;20.50;99.90;;;;;;6306019;22;19999;-81
2021/09/15 23:40:56;;;;;;;6.82;4.90;;;20.40;99.90;;;;;;6334610;22;20013;-81
2021/09/15 23:43:22;;;;;;;8.68;4.95;;;20.50;99.90;;;;;;6334777;22;19998;-81
2021/09/15 23:45:47;;;;;;;5.80;4.78;;;20.50;99.90;;;;;;6334640;22;19999;-81
2021/09/15 23:48:13;;;;;;;6.50;5.00;;;20.50;99.90;;;;;;6332847;22;20007;-82
2021/09/15 23:50:39;;;;;;;5.45;4.70;;;20.50;99.90;;;;;;6333883;22;20060;-82
2021/09/15 23:53:04;;;;;;;5.63;4.05;;;20.40;99.90;;;;;;6334482;22;20143;-80
2021/09/15 23:55:30;;;;;;;5.55;4.55;;;20.40;99.90;;;;;;6307672;22;20007;-80
2021/09/15 23:57:55;;;;;;;8.48;4.85;;;20.50;99.90;;;;;;6333601;22;20006;-82
